createdAt,value
2022-08-11T00:00:00.437Z,14.85
2022-08-11T00:02:35.103Z,12.73
2022-08-11T00:05:08.222Z,14.52
2022-08-11T00:07:43.458Z,12.13
2022-08-11T00:10:14.018Z,9.50
2022-08-11T00:12:43.830Z,13.63
2022-08-11T00:15:13.818Z,13.73
2022-08-11T00:17:44.865Z,7.97
2022-08-11T00:20:16.707Z,13.45
2022-08-11T00:25:17.992Z,13.57
2022-08-11T00:27:47.911Z,8.82
2022-08-11T00:30:16.968Z,14.30
2022-08-11T00:32:54.905Z,11.18
2022-08-11T00:35:54.983Z,7.50
2022-08-11T00:38:17.796Z,11.85
2022-08-11T00:40:54.786Z,8.10
2022-08-11T00:43:33.551Z,11.48
2022-08-11T00:46:13.723Z,8.63
2022-08-11T00:49:00.544Z,10.45
2022-08-11T00:52:04.217Z,8.68
2022-08-11T00:55:04.343Z,13.00
2022-08-11T00:58:12.670Z,12.55
2022-08-11T01:01:04.160Z,12.32
2022-08-11T01:03:55.770Z,10.68
2022-08-11T01:06:46.750Z,10.35
2022-08-11T01:09:39.852Z,9.52
2022-08-11T01:12:22.588Z,12.13
2022-08-11T01:15:23.071Z,16.55
2022-08-11T01:18:21.491Z,10.63
2022-08-11T01:21:36.166Z,9.18
2022-08-11T01:24:37.717Z,9.18
2022-08-11T01:27:23.262Z,10.05
2022-08-11T01:30:24.786Z,11.10
2022-08-11T01:33:25.497Z,9.13
2022-08-11T01:36:39.427Z,7.55
2022-08-11T01:39:34.109Z,13.45
2022-08-11T01:43:15.291Z,9.48
2022-08-11T01:45:50.007Z,9.88
2022-08-11T01:48:26.906Z,13.20
2022-08-11T01:51:30.259Z,12.77
2022-08-11T01:54:05.757Z,9.35
2022-08-11T01:56:50.790Z,11.77
2022-08-11T01:59:23.430Z,9.70
2022-08-11T02:02:45.964Z,10.63
2022-08-11T02:05:31.310Z,11.60
2022-08-11T02:08:12.738Z,12.05
2022-08-11T02:11:06.311Z,10.45
2022-08-11T02:13:43.426Z,12.57
2022-08-11T02:16:27.588Z,10.68
2022-08-11T02:19:28.346Z,10.73
2022-08-11T02:22:33.772Z,12.30
2022-08-11T02:25:06.836Z,10.63
2022-08-11T02:27:42.947Z,12.82
2022-08-11T02:30:15.685Z,7.70
2022-08-11T02:33:09.753Z,8.75
2022-08-11T02:35:47.904Z,11.25
2022-08-11T02:38:26.699Z,7.65
2022-08-11T02:41:03.970Z,10.95
2022-08-11T02:43:47.306Z,9.50
2022-08-11T02:46:28.234Z,10.93
2022-08-11T02:49:24.381Z,14.30
2022-08-11T02:52:05.083Z,10.25
2022-08-11T02:54:40.177Z,10.73
2022-08-11T02:57:20.904Z,13.65
2022-08-11T02:59:54.816Z,9.77
2022-08-11T03:02:45.975Z,13.15
2022-08-11T03:05:24.124Z,9.98
2022-08-11T03:08:15.469Z,10.90
2022-08-11T03:11:10.518Z,9.35
2022-08-11T03:14:04.838Z,8.45
2022-08-11T03:16:48.508Z,11.52
2022-08-11T03:19:38.112Z,12.27
2022-08-11T03:22:14.555Z,12.73
2022-08-11T03:24:55.978Z,12.40
2022-08-11T03:27:44.676Z,8.38
2022-08-11T03:30:18.240Z,12.30
2022-08-11T03:33:17.318Z,11.18
2022-08-11T03:35:55.836Z,10.77
2022-08-11T03:38:30.599Z,10.80
2022-08-11T03:42:03.368Z,10.23
2022-08-11T03:44:32.839Z,13.68
2022-08-11T03:47:27.701Z,9.95
2022-08-11T03:50:04.820Z,11.82
2022-08-11T03:52:50.981Z,17.58
2022-08-11T03:55:29.655Z,10.35
2022-08-11T03:58:31.930Z,10.80
2022-08-11T04:01:42.833Z,10.55
2022-08-11T04:04:39.382Z,10.10
2022-08-11T04:08:05.557Z,11.27
2022-08-11T04:10:51.961Z,12.63
2022-08-11T04:13:42.453Z,13.35
2022-08-11T04:16:33.424Z,14.00
2022-08-11T04:19:47.221Z,12.00
2022-08-11T04:22:55.801Z,16.88
2022-08-11T04:25:58.949Z,14.15
2022-08-11T04:28:56.185Z,10.68
2022-08-11T04:31:52.735Z,14.10
2022-08-11T04:35:03.048Z,14.20
2022-08-11T04:38:07.517Z,11.40
2022-08-11T04:41:31.089Z,16.40
2022-08-11T04:44:50.299Z,16.23
2022-08-11T04:48:04.616Z,11.45
2022-08-11T04:51:16.425Z,15.55
2022-08-11T04:54:13.888Z,11.88
2022-08-11T04:57:03.789Z,16.80
2022-08-11T05:00:11.715Z,17.77
2022-08-11T05:03:36.576Z,14.60
2022-08-11T05:06:52.483Z,10.25
2022-08-11T05:09:35.815Z,14.45
2022-08-11T05:12:14.821Z,17.38
2022-08-11T05:15:08.387Z,12.10
2022-08-11T05:17:59.608Z,14.23
2022-08-11T05:20:46.049Z,16.25
2022-08-11T05:23:33.586Z,12.20
2022-08-11T05:26:46.735Z,14.93
2022-08-11T05:29:45.452Z,15.43
2022-08-11T05:32:34.521Z,15.70
2022-08-11T05:35:07.640Z,15.00
2022-08-11T05:37:57.302Z,15.68
2022-08-11T05:40:43.569Z,12.40
2022-08-11T05:44:20.532Z,15.68
2022-08-11T05:46:48.889Z,13.45
2022-08-11T05:49:34.525Z,19.27
2022-08-11T05:52:25.518Z,12.75
2022-08-11T05:55:22.335Z,14.18
2022-08-11T05:57:56.052Z,15.32
2022-08-11T06:00:26.616Z,12.30
2022-08-11T06:02:59.306Z,10.05
2022-08-11T06:05:38.560Z,19.27
2022-08-11T06:08:13.859Z,13.95
2022-08-11T06:10:44.321Z,10.65
2022-08-11T06:13:17.566Z,11.48
2022-08-11T06:15:48.763Z,9.43
2022-08-11T06:18:17.794Z,11.43
2022-08-11T06:20:49.109Z,11.80
2022-08-11T06:23:20.548Z,7.82
2022-08-11T06:25:49.653Z,10.15
2022-08-11T06:28:21.374Z,10.65
2022-08-11T06:30:52.139Z,9.68
2022-08-11T06:33:30.799Z,8.43
2022-08-11T06:36:06.863Z,8.20
2022-08-11T06:38:57.997Z,9.50
2022-08-11T06:41:31.879Z,9.10
2022-08-11T06:44:17.861Z,11.77
2022-08-11T06:46:50.965Z,9.30
2022-08-11T06:49:54.251Z,12.65
2022-08-11T06:52:32.008Z,10.90
2022-08-11T06:55:55.979Z,10.52
2022-08-11T06:58:19.979Z,10.45
2022-08-11T07:00:50.980Z,9.82
2022-08-11T07:03:38.405Z,9.13
2022-08-11T07:06:20.678Z,11.75
2022-08-11T07:09:33.733Z,11.93
2022-08-11T07:12:39.013Z,10.35
2022-08-11T07:16:11.243Z,6.57
2022-08-11T07:18:41.364Z,8.20
2022-08-11T07:22:01.794Z,8.45
2022-08-11T07:24:59.793Z,8.18
2022-08-11T07:27:55.280Z,13.73
2022-08-11T07:30:25.775Z,11.75
2022-08-11T07:32:57.041Z,7.32
2022-08-11T07:35:33.241Z,8.38
2022-08-11T07:38:07.278Z,9.55
2022-08-11T07:40:37.565Z,7.93
2022-08-11T07:43:07.712Z,10.52
2022-08-11T07:45:54.414Z,7.30
2022-08-11T07:48:40.527Z,6.68
2022-08-11T07:51:28.448Z,17.38
2022-08-11T07:53:58.406Z,9.13
2022-08-11T07:56:55.522Z,5.85
2022-08-11T08:00:00.190Z,8.10
2022-08-11T08:02:58.160Z,6.53
2022-08-11T08:05:44.490Z,5.65
2022-08-11T08:08:34.733Z,6.72
2022-08-11T08:11:27.132Z,12.23
2022-08-11T08:14:14.035Z,6.85
2022-08-11T08:17:00.932Z,10.45
2022-08-11T08:19:30.520Z,7.82
2022-08-11T08:22:37.341Z,6.10
2022-08-11T08:24:50.460Z,12.93
2022-08-11T08:27:20.030Z,7.20
2022-08-11T08:30:06.456Z,5.40
2022-08-11T08:32:36.316Z,3.85
2022-08-11T08:35:06.872Z,6.88
2022-08-11T08:37:46.748Z,6.68
2022-08-11T08:40:17.544Z,7.40
2022-08-11T08:42:53.657Z,10.50
2022-08-11T08:45:23.459Z,9.63
2022-08-11T08:47:58.985Z,7.78
2022-08-11T08:50:49.534Z,8.07
2022-08-11T08:53:24.460Z,5.60
2022-08-11T08:55:56.869Z,5.60
2022-08-11T08:58:26.175Z,6.22
2022-08-11T09:00:56.315Z,6.25
2022-08-11T09:04:06.581Z,10.05
2022-08-11T09:06:17.304Z,7.35
2022-08-11T09:08:45.946Z,7.63
2022-08-11T09:11:33.950Z,7.50
2022-08-11T09:14:05.753Z,5.88
2022-08-11T09:16:36.110Z,6.55
2022-08-11T09:19:05.046Z,4.38
2022-08-11T09:21:39.242Z,10.00
2022-08-11T09:24:36.412Z,14.07
2022-08-11T09:27:08.631Z,6.85
2022-08-11T09:29:39.605Z,10.13
2022-08-11T09:32:08.967Z,6.85
2022-08-11T09:34:40.037Z,6.72
2022-08-11T09:37:53.719Z,7.93
2022-08-11T09:40:33.785Z,8.55
2022-08-11T09:43:24.619Z,7.32
2022-08-11T09:45:54.620Z,5.70
2022-08-11T09:48:24.761Z,8.87
2022-08-11T09:50:55.738Z,5.80
2022-08-11T09:53:37.319Z,6.82
2022-08-11T09:56:31.086Z,16.23
2022-08-11T09:59:02.542Z,5.13
2022-08-11T10:01:33.362Z,8.57
2022-08-11T10:06:55.625Z,8.10
2022-08-11T10:09:26.487Z,6.37
2022-08-11T10:11:59.353Z,5.80
2022-08-11T10:14:49.208Z,3.80
2022-08-11T10:17:21.780Z,4.35
2022-08-11T10:20:05.506Z,8.57
2022-08-11T10:22:53.544Z,6.25
2022-08-11T10:25:40.596Z,3.42
2022-08-11T10:28:28.866Z,4.97
2022-08-11T10:31:18.850Z,3.85
2022-08-11T10:34:04.155Z,5.82
2022-08-11T10:36:34.438Z,3.38
2022-08-11T10:39:05.546Z,5.97
2022-08-11T10:42:07.570Z,4.03
2022-08-11T10:44:40.262Z,6.72
2022-08-11T10:47:31.241Z,4.18
2022-08-11T10:50:18.011Z,3.90
2022-08-11T10:53:07.736Z,6.28
2022-08-11T10:55:58.786Z,4.43
2022-08-11T10:58:44.741Z,3.53
2022-08-11T11:01:14.860Z,2.30
2022-08-11T11:03:45.813Z,7.35
2022-08-11T11:06:29.441Z,3.70
2022-08-11T11:09:04.568Z,4.15
2022-08-11T11:11:56.206Z,8.75
2022-08-11T11:14:50.711Z,5.28
2022-08-11T11:17:46.412Z,2.70
2022-08-11T11:20:36.545Z,5.00
2022-08-11T11:23:11.481Z,4.63
2022-08-11T11:26:14.980Z,3.40
2022-08-11T11:29:15.244Z,5.00
2022-08-11T11:32:11.030Z,4.85
2022-08-11T11:34:58.392Z,4.43
2022-08-11T11:37:31.637Z,4.30
2022-08-11T11:40:10.423Z,9.52
2022-08-11T11:42:40.474Z,3.03
2022-08-11T11:45:10.693Z,4.80
2022-08-11T11:47:53.909Z,5.30
2022-08-11T11:50:31.713Z,3.35
2022-08-11T11:53:05.148Z,5.63
2022-08-11T11:55:34.101Z,4.35
2022-08-11T11:58:22.208Z,5.65
2022-08-11T12:01:09.893Z,6.80
2022-08-11T12:03:39.701Z,3.38
2022-08-11T12:06:12.227Z,5.18
2022-08-11T12:08:43.966Z,4.38
2022-08-11T12:11:31.648Z,4.07
2022-08-11T12:14:04.682Z,4.03
2022-08-11T12:16:40.695Z,2.85
2022-08-11T12:19:12.930Z,4.75
2022-08-11T12:22:04.151Z,3.70
2022-08-11T12:24:52.604Z,6.75
2022-08-11T12:27:25.054Z,2.35
2022-08-11T12:29:56.665Z,6.38
2022-08-11T12:32:28.487Z,15.38
2022-08-11T12:34:58.111Z,2.88
2022-08-11T12:37:31.489Z,3.40
2022-08-11T12:40:42.802Z,3.95
2022-08-11T12:43:38.109Z,4.60
2022-08-11T12:46:10.445Z,3.70
2022-08-11T12:49:03.261Z,4.82
2022-08-11T12:52:12.110Z,4.85
2022-08-11T12:54:51.765Z,4.03
2022-08-11T12:57:47.233Z,6.63
2022-08-11T13:00:34.446Z,4.95
2022-08-11T13:03:21.117Z,8.80
2022-08-11T13:05:53.315Z,6.53
2022-08-11T13:08:25.322Z,4.68
2022-08-11T13:11:13.473Z,6.30
2022-08-11T13:13:53.886Z,4.47
2022-08-11T13:16:26.577Z,6.93
2022-08-11T13:18:55.530Z,6.80
2022-08-11T13:21:24.496Z,5.18
2022-08-11T13:24:01.233Z,5.78
2022-08-11T13:26:47.136Z,4.38
2022-08-11T13:29:20.379Z,4.68
2022-08-11T13:31:49.854Z,9.45
2022-08-11T13:34:19.753Z,4.30
2022-08-11T13:36:50.570Z,5.80
2022-08-11T13:39:19.544Z,4.90
2022-08-11T13:41:50.579Z,5.97
2022-08-11T13:44:25.608Z,3.13
2022-08-11T13:46:55.701Z,7.85
2022-08-11T13:49:24.650Z,4.43
2022-08-11T13:51:54.267Z,7.72
2022-08-11T13:54:25.134Z,8.43
2022-08-11T13:56:56.152Z,6.78
2022-08-11T13:59:30.240Z,5.97
2022-08-11T14:02:21.606Z,9.13
2022-08-11T14:04:57.182Z,6.28
2022-08-11T14:07:27.492Z,9.80
2022-08-11T14:10:00.341Z,5.18
2022-08-11T14:12:50.554Z,8.98
2022-08-11T14:15:25.151Z,4.57
2022-08-11T14:17:57.352Z,6.95
2022-08-11T14:20:45.864Z,4.90
2022-08-11T14:23:15.227Z,7.88
2022-08-11T14:26:04.885Z,7.53
2022-08-11T14:28:44.423Z,6.43
2022-08-11T14:31:16.550Z,7.85
2022-08-11T14:36:37.197Z,6.80
2022-08-11T14:39:13.314Z,4.90
2022-08-11T14:42:12.086Z,5.00
2022-08-11T14:45:01.415Z,5.90
2022-08-11T14:47:33.905Z,5.78
2022-08-11T14:50:11.668Z,11.63
2022-08-11T14:52:47.035Z,4.55
2022-08-11T14:55:34.181Z,5.38
2022-08-11T14:58:03.689Z,11.20
2022-08-11T15:00:34.260Z,6.15
2022-08-11T15:03:11.176Z,8.85
2022-08-11T15:06:00.241Z,3.35
2022-08-11T15:08:48.815Z,7.03
2022-08-11T15:11:36.586Z,10.15
2022-08-11T15:14:08.097Z,5.68
2022-08-11T15:16:55.774Z,5.85
2022-08-11T15:19:40.520Z,5.57
2022-08-11T15:22:28.472Z,4.00
2022-08-11T15:24:58.704Z,7.18
2022-08-11T15:27:44.911Z,7.18
2022-08-11T15:30:33.324Z,7.28
2022-08-11T15:33:24.739Z,14.27
2022-08-11T15:36:14.445Z,10.63
2022-08-11T15:38:45.715Z,6.28
2022-08-11T15:41:36.892Z,11.20
2022-08-11T15:44:59.072Z,10.77
2022-08-11T15:47:20.748Z,7.05
2022-08-11T15:50:11.882Z,15.35
2022-08-11T15:52:49.345Z,6.07
2022-08-11T15:55:18.511Z,7.70
2022-08-11T15:58:07.854Z,8.00
2022-08-11T16:01:02.674Z,7.47
2022-08-11T16:04:07.239Z,5.95
2022-08-11T16:06:42.788Z,7.55
2022-08-11T16:09:21.901Z,11.35
2022-08-11T16:11:52.625Z,11.38
2022-08-11T16:14:39.490Z,9.82
2022-08-11T16:17:09.480Z,13.82
2022-08-11T16:19:38.585Z,9.40
2022-08-11T16:22:10.289Z,8.32
2022-08-11T16:27:02.157Z,12.02
2022-08-11T16:27:36.517Z,4.68
2022-08-11T16:30:06.947Z,13.02
2022-08-11T16:32:37.947Z,11.32
2022-08-11T16:35:28.073Z,4.35
2022-08-11T16:38:15.524Z,6.57
2022-08-11T16:40:46.193Z,7.03
2022-08-11T16:43:36.132Z,5.37
2022-08-11T16:46:35.257Z,6.18
2022-08-11T16:49:06.468Z,3.83
2022-08-11T16:51:34.733Z,8.18
2022-08-11T16:54:05.700Z,6.35
2022-08-11T16:59:16.570Z,9.73
2022-08-11T17:01:53.502Z,12.00
2022-08-11T17:04:56.869Z,7.88
2022-08-11T17:07:44.797Z,7.28
2022-08-11T17:10:50.806Z,8.55
2022-08-11T17:13:25.382Z,9.45
2022-08-11T17:16:12.104Z,6.75
2022-08-11T17:18:48.384Z,5.00
2022-08-11T17:21:20.678Z,14.52
2022-08-11T17:23:52.167Z,10.70
2022-08-11T17:26:24.383Z,8.98
2022-08-11T17:28:58.935Z,6.50
2022-08-11T17:31:47.466Z,5.38
2022-08-11T17:34:33.813Z,8.15
2022-08-11T17:37:02.708Z,6.25
2022-08-11T17:39:32.795Z,8.10
2022-08-11T17:42:19.658Z,7.57
2022-08-11T17:45:09.170Z,8.23
2022-08-11T17:47:56.254Z,6.15
2022-08-11T17:50:24.840Z,11.35
2022-08-11T17:53:11.185Z,10.60
2022-08-11T17:55:58.728Z,7.20
2022-08-11T17:58:45.647Z,12.35
2022-08-11T18:01:16.871Z,7.10
2022-08-11T18:03:56.331Z,8.48
2022-08-11T18:06:32.585Z,12.93
2022-08-11T18:09:22.756Z,7.00
2022-08-11T18:12:12.149Z,12.07
2022-08-11T18:15:00.675Z,6.57
2022-08-11T18:17:48.197Z,5.07
2022-08-11T18:20:34.271Z,8.13
2022-08-11T18:23:40.386Z,9.57
2022-08-11T18:26:32.044Z,7.93
2022-08-11T18:29:19.053Z,8.77
2022-08-11T18:32:08.866Z,12.43
2022-08-11T18:35:00.335Z,8.45
2022-08-11T18:37:51.437Z,6.63
2022-08-11T18:40:40.472Z,8.07
2022-08-11T18:43:28.638Z,6.53
2022-08-11T18:46:19.803Z,8.38
2022-08-11T18:49:15.534Z,9.02
2022-08-11T18:52:05.986Z,12.73
2022-08-11T18:54:55.418Z,12.40
2022-08-11T18:57:49.390Z,8.98
2022-08-11T19:00:37.972Z,7.68
2022-08-11T19:03:25.611Z,7.22
2022-08-11T19:06:39.079Z,8.02
2022-08-11T19:09:24.040Z,11.63
2022-08-11T19:12:11.262Z,5.53
2022-08-11T19:14:59.796Z,6.90
2022-08-11T19:17:48.288Z,11.00
2022-08-11T19:20:38.443Z,9.80
2022-08-11T19:23:27.802Z,9.25
2022-08-11T19:26:16.455Z,10.30
2022-08-11T19:29:05.234Z,9.48
2022-08-11T19:31:52.780Z,7.85
2022-08-11T19:34:40.920Z,13.35
2022-08-11T19:37:28.796Z,10.55
2022-08-11T19:40:17.982Z,15.77
2022-08-11T19:43:14.762Z,9.20
2022-08-11T19:46:13.635Z,7.93
2022-08-11T19:49:02.352Z,10.57
2022-08-11T19:51:53.440Z,7.88
2022-08-11T19:54:44.544Z,16.38
2022-08-11T19:57:35.906Z,13.85
2022-08-11T20:00:30.500Z,9.43
2022-08-11T20:03:17.027Z,12.45
2022-08-11T20:06:04.382Z,11.63
2022-08-11T20:08:55.010Z,9.85
2022-08-11T20:11:45.417Z,8.00
2022-08-11T20:14:32.554Z,11.02
2022-08-11T20:17:21.267Z,9.80
2022-08-11T20:20:08.009Z,7.95
2022-08-11T20:22:53.929Z,9.35
2022-08-11T20:25:42.314Z,15.85
2022-08-11T20:28:29.663Z,10.68
2022-08-11T20:31:15.452Z,17.70
2022-08-11T20:34:03.656Z,11.40
2022-08-11T20:36:54.841Z,16.05
2022-08-11T20:39:43.160Z,11.27
2022-08-11T20:42:39.940Z,13.02
2022-08-11T20:45:28.966Z,12.27
2022-08-11T20:48:16.189Z,14.25
2022-08-11T20:51:07.585Z,11.23
2022-08-11T20:53:56.527Z,11.38
2022-08-11T20:56:46.604Z,18.50
2022-08-11T20:59:49.381Z,12.18
2022-08-11T21:02:44.517Z,18.95
2022-08-11T21:06:08.573Z,9.35
2022-08-11T21:08:42.815Z,13.55
2022-08-11T21:11:33.459Z,14.18
2022-08-11T21:14:21.055Z,14.18
2022-08-11T21:17:27.566Z,11.35
2022-08-11T21:20:20.450Z,17.80
2022-08-11T21:23:13.113Z,9.13
2022-08-11T21:26:14.635Z,10.27
2022-08-11T21:29:02.263Z,14.70
2022-08-11T21:31:50.128Z,12.35
2022-08-11T21:34:40.116Z,13.48
2022-08-11T21:37:27.917Z,15.57
2022-08-11T21:40:17.488Z,11.27
2022-08-11T21:43:06.765Z,14.57
2022-08-11T21:45:55.553Z,10.30
2022-08-11T21:48:42.408Z,11.35
2022-08-11T21:51:28.961Z,14.48
2022-08-11T21:54:16.769Z,15.48
2022-08-11T21:57:04.091Z,15.23
2022-08-11T22:00:03.686Z,15.75
2022-08-11T22:02:57.245Z,13.25
2022-08-11T22:05:44.215Z,19.23
2022-08-11T22:08:30.629Z,16.20
2022-08-11T22:11:17.199Z,13.60
2022-08-11T22:14:18.376Z,14.90
2022-08-11T22:17:05.775Z,12.85
2022-08-11T22:19:53.237Z,19.27
2022-08-11T22:22:52.333Z,15.55
2022-08-11T22:25:41.783Z,15.00
2022-08-11T22:28:38.368Z,12.70
2022-08-11T22:31:25.456Z,19.98
2022-08-11T22:34:12.956Z,14.88
2022-08-11T22:37:00.318Z,17.92
2022-08-11T22:39:59.556Z,11.65
2022-08-11T22:42:49.438Z,15.88
2022-08-11T22:45:35.545Z,10.73
2022-08-11T22:48:24.315Z,14.30
2022-08-11T22:51:14.119Z,14.13
2022-08-11T22:54:00.210Z,10.90
2022-08-11T22:56:48.462Z,15.85
2022-08-11T22:59:35.433Z,13.48
2022-08-11T23:02:22.230Z,13.63
2022-08-11T23:05:08.685Z,13.20
2022-08-11T23:07:57.785Z,22.60
2022-08-11T23:10:44.808Z,22.83
2022-08-11T23:13:31.673Z,20.00
2022-08-11T23:16:18.315Z,17.42
2022-08-11T23:19:04.628Z,18.35
2022-08-11T23:21:50.795Z,15.80
2022-08-11T23:24:39.626Z,8.77
2022-08-11T23:27:27.539Z,12.52
2022-08-11T23:30:17.092Z,11.75
2022-08-11T23:33:10.361Z,13.95
2022-08-11T23:36:04.535Z,11.48
2022-08-11T23:38:51.962Z,9.10
2022-08-11T23:41:40.038Z,9.88
2022-08-11T23:44:27.592Z,11.43
2022-08-11T23:47:18.088Z,16.92
2022-08-11T23:50:05.677Z,15.60
2022-08-11T23:52:52.482Z,12.43
2022-08-11T23:55:39.007Z,9.52
2022-08-11T23:58:26.849Z,10.57
